Time;durP1;ratioP1;P1;durP2;ratioP2;P2;SDS_P1;SDS_P2;PMS_P1;PMS_P2;Temp;Humidity;BMP_temperature;BMP_pressure;BME280_temperature;BME280_humidity;BME280_pressure;Samples;Min_cycle;Max_cycle;Signal;HPM_P1;HPM_P2
2022/09/19 00:01:26;;;;;;;;;;;15.20;64.10;;;;;;5073406;28;20359;-90
2022/09/19 00:03:53;;;;;;;;;;;15.20;64.30;;;;;;5074815;28;19921;-85
2022/09/19 00:06:19;;;;;;;;;;;15.20;64.40;;;;;;5071292;28;20387;-89
2022/09/19 00:08:45;;;;;;;;;;;15.30;64.50;;;;;;5072711;28;19919;-84
2022/09/19 00:11:11;;;;;;;;;;;15.30;64.40;;;;;;5070821;28;19934;-85
2022/09/19 00:13:44;;;;;;;;;;;15.30;64.50;;;;;;5072247;28;20001;-89
2022/09/19 00:16:10;;;;;;;;;;;15.40;64.60;;;;;;5072151;28;19916;-89
2022/09/19 00:18:36;;;;;;;;;;;15.40;64.50;;;;;;5072300;28;20031;-88
2022/09/19 00:21:02;;;;;;;;;;;15.30;64.30;;;;;;5071945;28;20367;-85
2022/09/19 00:26:12;;;;;;;;;;;15.30;64.30;;;;;;5076919;28;20374;-88
2022/09/19 00:28:39;;;;;;;;;;;15.30;64.50;;;;;;5073682;28;20358;-91
2022/09/19 00:31:05;;;;;;;;;;;15.30;64.60;;;;;;5091086;28;19912;-87
2022/09/19 00:33:31;;;;;;;;;;;15.40;64.80;;;;;;5090440;28;20018;-90
2022/09/19 00:35:57;;;;;;;;;;;15.40;64.90;;;;;;5091002;28;20055;-86
2022/09/19 00:38:27;;;;;;;;;;;15.60;64.90;;;;;;5091087;28;20282;-89
2022/09/19 00:40:53;;;;;;;;;;;15.60;64.90;;;;;;5088408;28;19908;-86
2022/09/19 00:43:19;;;;;;;;;;;15.70;64.80;;;;;;5070163;28;20287;-87
2022/09/19 00:45:45;;;;;;;;;;;15.70;64.50;;;;;;5071840;28;19913;-88
2022/09/19 00:48:12;;;;;;;;;;;15.60;64.30;;;;;;5071487;28;19970;-86
2022/09/19 00:50:38;;;;;;;;;;;15.60;64.10;;;;;;5071536;28;19908;-88
2022/09/19 00:53:06;;;;;;;;;;;15.50;64.10;;;;;;5071004;28;20431;-86
2022/09/19 00:55:32;;;;;;;;;;;15.50;64.10;;;;;;5071266;28;19908;-88
2022/09/19 00:58:00;;;;;;;;;;;15.50;64.00;;;;;;5071633;28;19933;-87
2022/09/19 01:00:26;;;;;;;;;;;15.50;63.80;;;;;;5070431;28;19912;-86
2022/09/19 01:02:52;;;;;;;;;;;15.40;63.80;;;;;;5073104;28;19923;-89
2022/09/19 01:05:22;;;;;;;;;;;15.40;63.70;;;;;;5069892;28;20358;-86
2022/09/19 01:08:01;;;;;;;;;;;15.30;63.70;;;;;;5069817;28;19931;-88
2022/09/19 01:10:48;;;;;;;;;;;15.30;63.70;;;;;;5070504;28;19912;-86
2022/09/19 01:13:19;;;;;;;;;;;15.30;63.90;;;;;;5070778;28;19917;-89
2022/09/19 01:15:57;;;;;;;;;;;15.20;63.80;;;;;;5079296;28;19915;-90
2022/09/19 01:18:26;;;;;;;;;;;15.20;63.70;;;;;;5089900;28;19916;-89
2022/09/19 01:21:37;;;;;;;;;;;15.20;64.00;;;;;;5075761;28;19916;-87
2022/09/19 01:23:53;;;;;;;;;;;15.20;64.00;;;;;;5071350;28;20371;-90
2022/09/19 01:26:32;;;;;;;;;;;15.20;63.80;;;;;;5070437;28;19909;-87
2022/09/19 01:29:07;;;;;;;;;;;15.20;63.80;;;;;;5069738;28;19983;-90
2022/09/19 01:31:36;;;;;;;;;;;15.10;63.70;;;;;;5073276;28;19909;-90
2022/09/19 01:34:05;;;;;;;;;;;15.10;63.80;;;;;;5089929;28;19924;-88
2022/09/19 01:36:33;;;;;;;;;;;15.10;63.70;;;;;;5091060;28;19912;-88
2022/09/19 01:39:01;;;;;;;;;;;15.00;63.50;;;;;;5089628;28;19920;-89
2022/09/19 01:41:27;;;;;;;;;;;15.10;63.50;;;;;;5089916;28;19908;-89
2022/09/19 01:43:53;;;;;;;;;;;15.00;63.70;;;;;;5090762;28;19924;-85
2022/09/19 01:46:36;;;;;;;;;;;15.00;64.00;;;;;;5090058;28;19915;-86
2022/09/19 01:49:25;;;;;;;;;;;15.10;64.20;;;;;;5091291;28;19977;-90
2022/09/19 01:51:55;;;;;;;;;;;15.10;64.40;;;;;;5093118;28;20001;-89
2022/09/19 01:54:33;;;;;;;;;;;15.20;64.60;;;;;;5093954;28;19930;-86
2022/09/19 01:57:17;;;;;;;;;;;15.20;64.80;;;;;;5095349;28;20423;-90
2022/09/19 01:59:47;;;;;;;;;;;15.30;64.90;;;;;;5094108;28;20014;-86
2022/09/19 02:02:21;;;;;;;;;;;15.40;65.00;;;;;;5095167;28;19923;-87
2022/09/19 02:04:59;;;;;;;;;;;15.50;64.90;;;;;;5093755;28;19927;-89
2022/09/19 02:07:32;;;;;;;;;;;15.50;64.70;;;;;;5094770;28;19970;-85
2022/09/19 02:10:00;;;;;;;;;;;15.50;64.50;;;;;;5075514;28;19916;-86
2022/09/19 02:12:26;;;;;;;;;;;15.50;64.50;;;;;;5075001;28;19920;-87
2022/09/19 02:14:54;;;;;;;;;;;15.60;64.50;;;;;;5074427;28;19928;-89
2022/09/19 02:17:48;;;;;;;;;;;15.60;64.50;;;;;;5073321;28;19909;-87
2022/09/19 02:20:24;;;;;;;;;;;15.70;64.50;;;;;;5073969;28;19920;-89
2022/09/19 02:22:51;;;;;;;;;;;15.80;64.60;;;;;;5074228;28;19927;-87
2022/09/19 02:25:21;;;;;;;;;;;15.80;64.60;;;;;;5074950;28;19913;-90
2022/09/19 02:27:51;;;;;;;;;;;15.80;64.70;;;;;;5075186;28;19920;-86
2022/09/19 02:30:20;;;;;;;;;;;15.90;64.70;;;;;;5072992;28;19919;-87
2022/09/19 02:32:49;;;;;;;;;;;15.90;64.80;;;;;;5072318;28;19908;-89
2022/09/19 02:35:18;;;;;;;;;;;16.00;64.70;;;;;;5073127;28;19912;-88
2022/09/19 02:37:50;;;;;;;;;;;16.00;64.70;;;;;;5074520;28;19951;-89
2022/09/19 02:40:20;;;;;;;;;;;16.00;64.60;;;;;;5074111;28;19924;-88
2022/09/19 02:42:49;;;;;;;;;;;16.00;64.70;;;;;;5072897;28;19956;-87
2022/09/19 02:45:20;;;;;;;;;;;16.00;64.70;;;;;;5073949;28;20391;-89
2022/09/19 02:48:09;;;;;;;;;;;16.00;64.80;;;;;;5072286;28;19920;-86
2022/09/19 02:50:35;;;;;;;;;;;16.00;64.90;;;;;;5070605;28;19962;-85
2022/09/19 02:53:02;;;;;;;;;;;16.00;65.00;;;;;;5072337;28;20507;-84
2022/09/19 02:55:32;;;;;;;;;;;16.00;65.00;;;;;;5073598;28;19970;-88
2022/09/19 02:58:02;;;;;;;;;;;16.00;65.10;;;;;;5072325;28;19909;-88
2022/09/19 03:00:28;;;;;;;;;;;16.00;65.10;;;;;;5072267;28;20003;-86
2022/09/19 03:02:57;;;;;;;;;;;16.00;65.10;;;;;;5070783;28;20673;-86
2022/09/19 03:05:25;;;;;;;;;;;16.00;65.30;;;;;;5073584;28;20019;-88
2022/09/19 03:07:54;;;;;;;;;;;16.00;65.20;;;;;;5074914;28;20001;-88
2022/09/19 03:10:21;;;;;;;;;;;16.00;65.20;;;;;;5094625;28;19912;-86
2022/09/19 03:12:55;;;;;;;;;;;16.00;65.20;;;;;;5094270;28;19915;-89
2022/09/19 03:15:36;;;;;;;;;;;15.90;65.10;;;;;;5092969;28;19912;-85
2022/09/19 03:18:03;;;;;;;;;;;15.90;65.20;;;;;;5092091;28;19960;-85
2022/09/19 03:20:29;;;;;;;;;;;15.80;65.10;;;;;;5092127;28;19973;-84
2022/09/19 03:22:55;;;;;;;;;;;15.80;65.00;;;;;;5092038;28;20370;-88
2022/09/19 03:25:21;;;;;;;;;;;15.80;64.90;;;;;;5093292;28;19998;-90
2022/09/19 03:27:49;;;;;;;;;;;15.70;64.70;;;;;;5093609;28;19919;-87
2022/09/19 03:30:15;;;;;;;;;;;15.80;64.90;;;;;;5094103;28;19908;-88
2022/09/19 03:32:41;;;;;;;;;;;15.70;64.80;;;;;;5092532;28;20270;-87
2022/09/19 03:35:07;;;;;;;;;;;15.70;64.90;;;;;;5093245;28;19923;-89
2022/09/19 03:37:33;;;;;;;;;;;15.80;65.00;;;;;;5092110;28;19911;-84
2022/09/19 03:39:59;;;;;;;;;;;15.80;65.00;;;;;;5091917;28;19938;-85
2022/09/19 03:42:25;;;;;;;;;;;15.80;64.90;;;;;;5091650;28;19966;-88
2022/09/19 03:44:51;;;;;;;;;;;15.80;64.90;;;;;;5091339;28;19916;-88
2022/09/19 03:47:21;;;;;;;;;;;15.80;64.90;;;;;;5092992;28;20011;-85
2022/09/19 03:49:49;;;;;;;;;;;15.80;64.90;;;;;;5091876;28;19920;-86
2022/09/19 03:52:15;;;;;;;;;;;15.90;64.90;;;;;;5092794;28;19919;-88
2022/09/19 03:54:41;;;;;;;;;;;15.90;65.00;;;;;;5092865;28;19920;-89
2022/09/19 03:57:06;;;;;;;;;;;16.00;65.20;;;;;;5092994;28;20358;-84
2022/09/19 03:59:32;;;;;;;;;;;16.00;65.10;;;;;;5092772;28;19957;-87
2022/09/19 04:01:58;;;;;;;;;;;16.10;65.20;;;;;;5091356;28;20429;-85
2022/09/19 04:04:24;;;;;;;;;;;16.10;65.20;;;;;;5091739;28;20286;-87
2022/09/19 04:06:49;;;;;;;;;;;16.20;65.10;;;;;;5091466;28;19908;-86
2022/09/19 04:09:14;;;;;;;;;;;16.20;65.00;;;;;;5078017;28;19917;-86
2022/09/19 04:11:41;;;;;;;;;;;16.20;65.00;;;;;;5071030;28;19970;-87
2022/09/19 04:14:07;;;;;;;;;;;16.30;65.00;;;;;;5070747;28;20010;-88
2022/09/19 04:16:32;;;;;;;;;;;16.30;64.90;;;;;;5072105;28;19919;-86
2022/09/19 04:18:58;;;;;;;;;;;16.30;64.90;;;;;;5072025;28;19938;-89
2022/09/19 04:21:25;;;;;;;;;;;16.30;64.80;;;;;;5072097;28;20359;-89
2022/09/19 04:23:50;;;;;;;;;;;16.30;64.80;;;;;;5070518;28;19964;-89
2022/09/19 04:26:16;;;;;;;;;;;16.40;64.80;;;;;;5072633;28;20397;-85
2022/09/19 04:28:42;;;;;;;;;;;16.40;64.80;;;;;;5071979;28;19923;-85
2022/09/19 04:31:12;;;;;;;;;;;16.40;64.70;;;;;;5070508;28;19909;-86
2022/09/19 04:33:37;;;;;;;;;;;16.40;64.70;;;;;;5070499;28;19970;-86
2022/09/19 04:36:05;;;;;;;;;;;16.40;64.70;;;;;;5071899;28;19912;-85
2022/09/19 04:38:32;;;;;;;;;;;16.50;64.60;;;;;;5070383;28;20434;-88
2022/09/19 04:40:57;;;;;;;;;;;16.40;64.70;;;;;;5070855;28;19908;-86
2022/09/19 04:43:25;;;;;;;;;;;16.50;64.60;;;;;;5070235;28;19925;-88
2022/09/19 04:45:50;;;;;;;;;;;16.50;64.80;;;;;;5070129;28;19935;-85
2022/09/19 04:48:17;;;;;;;;;;;16.50;64.70;;;;;;5071598;28;19920;-85
2022/09/19 04:50:44;;;;;;;;;;;16.60;64.60;;;;;;5070348;28;20007;-88
2022/09/19 04:53:13;;;;;;;;;;;16.60;64.60;;;;;;5070157;28;19920;-89
2022/09/19 04:55:39;;;;;;;;;;;16.60;64.60;;;;;;5072203;28;19908;-87
2022/09/19 04:58:04;;;;;;;;;;;16.60;64.70;;;;;;5069788;28;20382;-85
2022/09/19 05:00:39;;;;;;;;;;;16.60;64.70;;;;;;5071237;28;19908;-88
2022/09/19 05:03:07;;;;;;;;;;;16.70;65.00;;;;;;5070148;28;19935;-87
2022/09/19 05:05:34;;;;;;;;;;;16.70;64.90;;;;;;5069996;28;19909;-88
2022/09/19 05:07:59;;;;;;;;;;;16.70;65.00;;;;;;5072940;28;20347;-89
2022/09/19 05:10:25;;;;;;;;;;;16.80;64.90;;;;;;5090418;28;20433;-89
2022/09/19 05:12:51;;;;;;;;;;;16.80;64.90;;;;;;5091128;28;19959;-89
2022/09/19 05:15:17;;;;;;;;;;;16.80;65.00;;;;;;5090111;28;19939;-87
2022/09/19 05:17:42;;;;;;;;;;;16.90;65.00;;;;;;5089813;28;19915;-86
2022/09/19 05:20:08;;;;;;;;;;;17.00;65.00;;;;;;5091717;28;19922;-86
2022/09/19 05:22:33;;;;;;;;;;;17.00;65.00;;;;;;5090151;28;19966;-85
2022/09/19 05:25:04;;;;;;;;;;;17.00;64.90;;;;;;5091106;28;19932;-89
2022/09/19 05:27:36;;;;;;;;;;;17.10;65.00;;;;;;5090075;28;19916;-86
2022/09/19 05:30:01;;;;;;;;;;;17.20;64.90;;;;;;5091696;28;20301;-85
2022/09/19 05:32:27;;;;;;;;;;;17.20;64.90;;;;;;5089906;28;20426;-85
2022/09/19 05:35:00;;;;;;;;;;;17.20;64.80;;;;;;5091365;28;19923;-85
2022/09/19 05:37:26;;;;;;;;;;;17.20;64.90;;;;;;5087061;28;20003;-86
2022/09/19 05:39:52;;;;;;;;;;;17.30;64.90;;;;;;5079102;28;19948;-89
2022/09/19 05:42:17;;;;;;;;;;;17.30;64.80;;;;;;5090967;28;19957;-87
2022/09/19 05:44:43;;;;;;;;;;;17.30;64.90;;;;;;5076095;28;19983;-89
2022/09/19 05:47:09;;;;;;;;;;;17.30;65.00;;;;;;5074590;28;20029;-85
2022/09/19 05:49:35;;;;;;;;;;;17.40;65.00;;;;;;5076064;28;19920;-89
2022/09/19 05:53:51;;;;;;;;;;;17.40;65.10;;;;;;5082417;28;19912;-89
2022/09/19 05:54:46;;;;;;;;;;;17.40;65.00;;;;;;5071141;28;20321;-86
2022/09/19 05:57:12;;;;;;;;;;;17.50;65.00;;;;;;5072471;28;19908;-87
2022/09/19 05:59:38;;;;;;;;;;;17.50;65.10;;;;;;5080239;28;19974;-88
2022/09/19 06:02:05;;;;;;;;;;;17.60;65.10;;;;;;5070301;28;19969;-89
2022/09/19 06:04:30;;;;;;;;;;;17.60;65.00;;;;;;5085986;28;19963;-85
2022/09/19 06:06:56;;;;;;;;;;;17.60;65.00;;;;;;5080722;28;19956;-89
2022/09/19 06:09:21;;;;;;;;;;;17.70;65.30;;;;;;5083371;28;19966;-85
2022/09/19 06:11:47;;;;;;;;;;;17.80;65.40;;;;;;5071788;28;20354;-85
2022/09/19 06:14:15;;;;;;;;;;;17.90;65.50;;;;;;5076390;28;20003;-86
2022/09/19 06:16:44;;;;;;;;;;;18.10;65.60;;;;;;5089432;28;19955;-87
2022/09/19 06:19:10;;;;;;;;;;;18.20;65.60;;;;;;5090728;28;19916;-90
2022/09/19 06:21:36;;;;;;;;;;;18.30;65.60;;;;;;5089530;28;19924;-89
2022/09/19 06:24:01;;;;;;;;;;;18.50;65.60;;;;;;5088988;28;19959;-88
2022/09/19 06:26:27;;;;;;;;;;;18.50;65.60;;;;;;5082538;28;19908;-89
2022/09/19 06:28:53;;;;;;;;;;;18.70;65.70;;;;;;5074333;28;19917;-86
2022/09/19 06:31:19;;;;;;;;;;;18.80;65.70;;;;;;5080235;28;19908;-92
2022/09/19 06:33:45;;;;;;;;;;;19.10;65.80;;;;;;5078787;28;19917;-88
2022/09/19 06:36:11;;;;;;;;;;;19.10;65.50;;;;;;5079849;28;19916;-90
2022/09/19 06:38:40;;;;;;;;;;;19.20;65.10;;;;;;5081547;28;19999;-86
2022/09/19 06:41:07;;;;;;;;;;;19.20;65.10;;;;;;5074958;28;20401;-90
2022/09/19 06:43:33;;;;;;;;;;;19.30;65.10;;;;;;5072616;28;20023;-89
2022/09/19 06:45:58;;;;;;;;;;;19.30;65.00;;;;;;5074714;28;19944;-86
2022/09/19 06:48:24;;;;;;;;;;;19.40;65.00;;;;;;5074009;28;19912;-89
2022/09/19 06:50:49;;;;;;;;;;;19.40;64.90;;;;;;5073015;28;19917;-87
2022/09/19 06:53:15;;;;;;;;;;;19.40;64.90;;;;;;5073130;28;19913;-86
2022/09/19 06:55:41;;;;;;;;;;;19.40;64.90;;;;;;5073051;28;19912;-89
2022/09/19 06:58:06;;;;;;;;;;;19.40;64.90;;;;;;5073968;28;19917;-89
2022/09/19 07:00:36;;;;;;;;;;;19.40;64.90;;;;;;5073488;28;19920;-88
2022/09/19 07:03:08;;;;;;;;;;;19.50;65.00;;;;;;5082075;28;19927;-86
2022/09/19 07:05:35;;;;;;;;;;;19.50;65.00;;;;;;5093765;28;20374;-89
2022/09/19 07:08:01;;;;;;;;;;;19.50;65.10;;;;;;5094667;28;20010;-85
2022/09/19 07:10:27;;;;;;;;;;;19.50;65.10;;;;;;5092641;28;19947;-87
2022/09/19 07:12:53;;;;;;;;;;;19.70;65.10;;;;;;5093584;28;19908;-90
2022/09/19 07:15:19;;;;;;;;;;;19.70;65.10;;;;;;5093061;28;19916;-86
2022/09/19 07:17:44;;;;;;;;;;;19.80;65.40;;;;;;5092020;28;20434;-89
2022/09/19 07:20:09;;;;;;;;;;;20.00;65.50;;;;;;5095472;28;19994;-87
2022/09/19 07:22:35;;;;;;;;;;;20.10;65.40;;;;;;5093347;28;19916;-89
2022/09/19 07:25:01;;;;;;;;;;;20.20;65.20;;;;;;5093881;28;20360;-90
2022/09/19 07:27:26;;;;;;;;;;;20.40;65.10;;;;;;5089065;28;19949;-89
2022/09/19 07:29:52;;;;;;;;;;;20.40;65.20;;;;;;5084242;28;19934;-89
2022/09/19 07:32:17;;;;;;;;;;;20.50;65.50;;;;;;5091091;28;19912;-89
2022/09/19 07:34:45;;;;;;;;;;;20.70;65.70;;;;;;5095160;28;19949;-83
2022/09/19 07:37:11;;;;;;;;;;;20.90;65.40;;;;;;5098098;28;20003;-90
2022/09/19 07:39:37;;;;;;;;;;;20.90;64.80;;;;;;5089454;28;20568;-90
2022/09/19 07:42:02;;;;;;;;;;;20.80;64.70;;;;;;5088868;28;19915;-86
2022/09/19 07:44:28;;;;;;;;;;;20.80;64.50;;;;;;5095187;28;19962;-87
2022/09/19 07:49:38;;;;;;;;;;;20.80;64.90;;;;;;5106694;28;19959;-86
2022/09/19 07:52:03;;;;;;;;;;;20.90;65.20;;;;;;5081847;28;19912;-86
2022/09/19 07:54:29;;;;;;;;;;;21.00;65.50;;;;;;5090117;28;19920;-86
2022/09/19 07:56:54;;;;;;;;;;;21.20;65.70;;;;;;5087854;28;19916;-87
2022/09/19 07:59:19;;;;;;;;;;;21.40;65.80;;;;;;5088178;28;19971;-84
2022/09/19 08:01:45;;;;;;;;;;;21.60;65.50;;;;;;5088990;28;19919;-87
2022/09/19 08:04:10;;;;;;;;;;;21.70;65.40;;;;;;5078873;28;19999;-88
2022/09/19 08:06:36;;;;;;;;;;;21.80;65.30;;;;;;5069374;28;19916;-89
2022/09/19 08:09:02;;;;;;;;;;;21.80;65.20;;;;;;5070343;28;19920;-90
2022/09/19 08:11:28;;;;;;;;;;;21.90;64.50;;;;;;5074121;28;20278;-90
2022/09/19 08:13:53;;;;;;;;;;;21.90;64.50;;;;;;5068622;28;19942;-90
2022/09/19 08:16:19;;;;;;;;;;;22.00;65.10;;;;;;5069540;28;19995;-89
2022/09/19 08:18:44;;;;;;;;;;;22.20;65.00;;;;;;5069844;28;20579;-86
2022/09/19 08:21:10;;;;;;;;;;;22.30;65.00;;;;;;5068390;28;19924;-90
2022/09/19 08:23:36;;;;;;;;;;;22.40;64.30;;;;;;5071275;28;20023;-86
2022/09/19 08:26:04;;;;;;;;;;;22.50;64.50;;;;;;5068488;28;20007;-88
2022/09/19 08:28:30;;;;;;;;;;;22.50;64.40;;;;;;5070922;28;19920;-88
2022/09/19 08:30:59;;;;;;;;;;;22.60;64.50;;;;;;5068421;28;19916;-89
2022/09/19 08:33:32;;;;;;;;;;;22.70;63.70;;;;;;5071331;28;19916;-86
2022/09/19 08:35:59;;;;;;;;;;;22.60;63.70;;;;;;5069200;28;19970;-91
2022/09/19 08:38:25;;;;;;;;;;;22.70;63.60;;;;;;5068320;28;20401;-88
2022/09/19 08:41:08;;;;;;;;;;;22.80;63.60;;;;;;5079798;28;20237;-88
2022/09/19 08:43:42;;;;;;;;;;;22.90;63.80;;;;;;5081431;28;19932;-91
2022/09/19 08:46:13;;;;;;;;;;;23.00;63.70;;;;;;5086939;28;20003;-90
2022/09/19 08:48:57;;;;;;;;;;;23.00;63.40;;;;;;5084609;28;19920;-86
2022/09/19 08:51:26;;;;;;;;;;;23.00;63.40;;;;;;5072451;28;19916;-88
2022/09/19 08:54:12;;;;;;;;;;;23.00;62.70;;;;;;5084256;28;20718;-90
2022/09/19 08:56:39;;;;;;;;;;;22.90;62.40;;;;;;5088492;28;20047;-90
2022/09/19 08:59:10;;;;;;;;;;;23.00;63.10;;;;;;5068349;28;20501;-87
2022/09/19 09:01:37;;;;;;;;;;;23.00;63.30;;;;;;5069103;28;20007;-87
2022/09/19 09:04:07;;;;;;;;;;;23.00;63.20;;;;;;5069129;28;19974;-91
2022/09/19 09:06:33;;;;;;;;;;;23.20;63.70;;;;;;5069143;28;20703;-91
2022/09/19 09:08:58;;;;;;;;;;;23.30;63.40;;;;;;5072418;28;19920;-90
2022/09/19 09:11:42;;;;;;;;;;;23.40;63.60;;;;;;5088973;28;20559;-86
2022/09/19 09:14:26;;;;;;;;;;;23.70;64.50;;;;;;5087577;28;20039;-86
2022/09/19 09:16:52;;;;;;;;;;;24.00;65.20;;;;;;5089413;28;19912;-86
2022/09/19 09:19:33;;;;;;;;;;;24.30;65.00;;;;;;5088435;28;19967;-90
2022/09/19 09:22:01;;;;;;;;;;;24.80;65.20;;;;;;5088877;28;19920;-89
2022/09/19 09:24:40;;;;;;;;;;;25.30;64.20;;;;;;5088701;28;19928;-86
2022/09/19 09:27:12;;;;;;;;;;;25.60;63.90;;;;;;5088700;28;19909;-88
2022/09/19 09:29:40;;;;;;;;;;;25.80;63.00;;;;;;5089626;28;19951;-92
2022/09/19 09:32:23;;;;;;;;;;;26.00;62.40;;;;;;5088848;28;20121;-88
2022/09/19 09:34:56;;;;;;;;;;;26.10;61.70;;;;;;5088528;28;19920;-87
2022/09/19 09:37:28;;;;;;;;;;;26.20;61.20;;;;;;5089005;28;20341;-91
2022/09/19 09:40:13;;;;;;;;;;;26.30;59.60;;;;;;5084918;28;19920;-92
2022/09/19 09:42:45;;;;;;;;;;;26.50;61.10;;;;;;5069498;28;19917;-90
2022/09/19 09:45:14;;;;;;;;;;;26.80;60.70;;;;;;5069103;28;19936;-87
2022/09/19 09:47:49;;;;;;;;;;;27.00;60.60;;;;;;5089895;28;19967;-88
2022/09/19 09:50:32;;;;;;;;;;;27.20;60.40;;;;;;5086954;28;20263;-85
2022/09/19 09:53:09;;;;;;;;;;;27.50;61.00;;;;;;5090688;28;19912;-88
2022/09/19 09:58:44;;;;;;;;;;;27.90;59.80;;;;;;5066338;28;20374;-87
2022/09/19 10:04:15;;;;;;;;;;;27.80;58.20;;;;;;5085023;28;20408;-88
2022/09/19 10:06:46;;;;;;;;;;;27.80;58.20;;;;;;5087106;28;19912;-89
2022/09/19 10:09:18;;;;;;;;;;;27.70;57.80;;;;;;5088279;28;19920;-88
2022/09/19 10:11:56;;;;;;;;;;;27.70;59.00;;;;;;5091173;28;19912;-90
2022/09/19 10:14:28;;;;;;;;;;;27.80;59.70;;;;;;5092154;28;19920;-90
2022/09/19 10:16:56;;;;;;;;;;;28.00;60.30;;;;;;5093054;28;19965;-91
2022/09/19 10:19:37;;;;;;;;;;;28.30;60.20;;;;;;5090861;28;19928;-86
2022/09/19 10:22:04;;;;;;;;;;;28.60;58.40;;;;;;5093822;28;19924;-89
2022/09/19 10:24:42;;;;;;;;;;;28.90;58.60;;;;;;5091061;28;20294;-86
2022/09/19 10:27:11;;;;;;;;;;;29.20;56.00;;;;;;5091410;28;19908;-87
2022/09/19 10:29:47;;;;;;;;;;;29.70;57.30;;;;;;5089046;28;20031;-89
2022/09/19 10:32:13;;;;;;;;;;;30.10;57.50;;;;;;5087512;28;20321;-88
2022/09/19 10:34:41;;;;;;;;;;;30.40;56.80;;;;;;5091490;28;19939;-88
2022/09/19 10:37:11;;;;;;;;;;;30.50;54.20;;;;;;5092152;28;19912;-86
2022/09/19 10:39:44;;;;;;;;;;;30.80;54.60;;;;;;5091667;28;19947;-86
2022/09/19 10:42:30;;;;;;;;;;;31.40;53.80;;;;;;5069981;28;19990;-90
2022/09/19 10:44:58;;;;;;;;;;;31.60;51.00;;;;;;5070040;28;19931;-87
2022/09/19 10:47:25;;;;;;;;;;;32.00;52.10;;;;;;5071758;28;20396;-91
2022/09/19 10:50:01;;;;;;;;;;;32.50;51.00;;;;;;5071621;28;19921;-90
2022/09/19 10:52:30;;;;;;;;;;;32.30;48.30;;;;;;5072760;28;20323;-90
2022/09/19 10:55:02;;;;;;;;;;;31.80;47.50;;;;;;5070637;28;20291;-89
2022/09/19 10:57:45;;;;;;;;;;;31.70;47.30;;;;;;5071391;28;19936;-89
2022/09/19 11:00:34;;;;;;;;;;;32.00;47.50;;;;;;5071305;28;19921;-88
2022/09/19 11:03:05;;;;;;;;;;;32.30;46.40;;;;;;5083284;28;19936;-88
2022/09/19 11:05:34;;;;;;;;;;;32.80;45.30;;;;;;5072686;28;19995;-88
2022/09/19 11:08:00;;;;;;;;;;;33.30;44.40;;;;;;5071203;28;21617;-90
2022/09/19 11:10:37;;;;;;;;;;;33.70;43.00;;;;;;5071464;28;19912;-89
2022/09/19 11:13:16;;;;;;;;;;;33.70;41.70;;;;;;5071341;28;19920;-88
2022/09/19 11:15:55;;;;;;;;;;;33.50;36.40;;;;;;5072900;28;20494;-88
2022/09/19 11:18:33;;;;;;;;;;;33.00;37.40;;;;;;5072607;28;19940;-86
2022/09/19 11:21:16;;;;;;;;;;;32.60;35.70;;;;;;5071184;28;19925;-90
2022/09/19 11:24:21;;;;;;;;;;;32.00;34.00;;;;;;5072405;28;19951;-87
2022/09/19 11:27:19;;;;;;;;;;;31.30;32.80;;;;;;5050277;28;19951;-88
2022/09/19 11:30:01;;;;;;;;;;;31.00;35.30;;;;;;5000256;28;19971;-87
2022/09/19 11:32:34;;;;;;;;;;;30.80;35.80;;;;;;5068384;28;19922;-95
2022/09/19 11:35:07;;;;;;;;;;;30.80;33.70;;;;;;5069171;28;21220;-87
2022/09/19 11:37:54;;;;;;;;;;;30.80;33.60;;;;;;5071842;28;19957;-87
2022/09/19 11:40:29;;;;;;;;;;;31.00;36.70;;;;;;5070251;28;19942;-91
2022/09/19 11:43:16;;;;;;;;;;;31.30;37.70;;;;;;5068849;28;19928;-89
2022/09/19 11:46:03;;;;;;;;;;;31.50;36.80;;;;;;5075055;28;19927;-88
2022/09/19 11:48:48;;;;;;;;;;;31.10;37.30;;;;;;5090368;28;19938;-91
2022/09/19 11:51:20;;;;;;;;;;;30.60;37.70;;;;;;5093791;28;20073;-88
2022/09/19 11:54:10;;;;;;;;;;;29.90;37.80;;;;;;5091932;28;20363;-88
2022/09/19 11:56:53;;;;;;;;;;;29.00;40.80;;;;;;5090286;28;20566;-86
2022/09/19 11:59:55;;;;;;;;;;;27.80;42.10;;;;;;5088953;28;19961;-87
2022/09/19 12:02:27;;;;;;;;;;;26.80;44.30;;;;;;5052504;28;19920;-89
2022/09/19 12:05:01;;;;;;;;;;;26.00;46.20;;;;;;5082578;28;20290;-87
2022/09/19 12:07:47;;;;;;;;;;;25.70;48.50;;;;;;5088576;28;19916;-92
2022/09/19 12:10:25;;;;;;;;;;;26.10;49.90;;;;;;5091410;28;19948;-88
2022/09/19 12:12:57;;;;;;;;;;;26.80;50.40;;;;;;5090080;28;19912;-89
2022/09/19 12:15:25;;;;;;;;;;;27.70;49.70;;;;;;5091528;28;19913;-87
2022/09/19 12:18:19;;;;;;;;;;;28.40;49.20;;;;;;5088919;28;20008;-88
2022/09/19 12:20:47;;;;;;;;;;;29.10;47.00;;;;;;5090569;28;20271;-86
2022/09/19 12:25:57;;;;;;;;;;;30.20;43.40;;;;;;5090238;28;19976;-87
2022/09/19 12:28:26;;;;;;;;;;;30.60;43.30;;;;;;5089223;28;19985;-87
2022/09/19 12:30:55;;;;;;;;;;;30.90;42.10;;;;;;5091261;28;19951;-86
2022/09/19 12:33:53;;;;;;;;;;;30.90;40.90;;;;;;5089758;28;20359;-91
2022/09/19 12:36:20;;;;;;;;;;;30.90;39.90;;;;;;5077162;28;19919;-88
2022/09/19 12:38:51;;;;;;;;;;;30.90;40.00;;;;;;5088569;28;19908;-90
2022/09/19 12:41:22;;;;;;;;;;;30.70;39.80;;;;;;5077620;28;19938;-90
2022/09/19 12:43:54;;;;;;;;;;;30.50;40.00;;;;;;5069368;28;19952;-91
2022/09/19 12:46:22;;;;;;;;;;;30.20;39.10;;;;;;5081819;28;20283;-90
2022/09/19 12:48:50;;;;;;;;;;;29.70;39.20;;;;;;5090001;28;20267;-86
2022/09/19 12:51:39;;;;;;;;;;;29.20;39.80;;;;;;5088019;28;19912;-92
2022/09/19 12:54:14;;;;;;;;;;;28.60;40.00;;;;;;5088054;28;19920;-92
2022/09/19 12:56:48;;;;;;;;;;;28.00;40.50;;;;;;5088001;28;20007;-93
2022/09/19 12:59:23;;;;;;;;;;;27.70;40.90;;;;;;5092509;28;19908;-89
2022/09/19 13:01:56;;;;;;;;;;;27.40;41.80;;;;;;5090029;28;20389;-87
2022/09/19 13:04:40;;;;;;;;;;;27.30;42.20;;;;;;5089052;28;19920;-89
2022/09/19 13:07:10;;;;;;;;;;;27.10;42.30;;;;;;5087919;28;19920;-88
2022/09/19 13:09:50;;;;;;;;;;;27.10;42.30;;;;;;5089351;28;20293;-92
2022/09/19 13:12:19;;;;;;;;;;;27.30;42.30;;;;;;5088570;28;19947;-86
2022/09/19 13:14:49;;;;;;;;;;;27.50;41.80;;;;;;5086775;28;19961;-89
2022/09/19 13:25:35;;;;;;;;;;;28.40;38.50;;;;;;5089421;28;19919;-88
2022/09/19 13:28:19;;;;;;;;;;;28.20;37.60;;;;;;5090539;28;19927;-91
2022/09/19 13:30:48;;;;;;;;;;;28.00;36.60;;;;;;5087334;28;19923;-88
2022/09/19 13:33:27;;;;;;;;;;;27.70;36.40;;;;;;5088884;28;19920;-89
2022/09/19 13:35:53;;;;;;;;;;;27.40;35.40;;;;;;5090590;28;19923;-88
2022/09/19 13:38:22;;;;;;;;;;;27.20;37.00;;;;;;5088728;28;19942;-93
2022/09/19 13:41:02;;;;;;;;;;;27.00;37.10;;;;;;5079664;28;19919;-92
2022/09/19 13:43:49;;;;;;;;;;;26.80;37.30;;;;;;5068496;28;19928;-91
2022/09/19 13:46:22;;;;;;;;;;;26.70;37.60;;;;;;5078188;28;19912;-87
2022/09/19 13:49:07;;;;;;;;;;;26.60;37.40;;;;;;5089522;28;20013;-88
2022/09/19 13:51:41;;;;;;;;;;;26.50;37.60;;;;;;5088196;28;20395;-91
2022/09/19 13:54:18;;;;;;;;;;;26.40;37.90;;;;;;5090436;28;20119;-89
2022/09/19 13:56:46;;;;;;;;;;;26.40;37.60;;;;;;5088779;28;19912;-88
2022/09/19 13:59:25;;;;;;;;;;;26.40;38.10;;;;;;5090186;28;19909;-87
2022/09/19 14:01:59;;;;;;;;;;;26.50;38.90;;;;;;5087668;28;19908;-91
2022/09/19 14:05:01;;;;;;;;;;;26.50;37.90;;;;;;5087397;28;19963;-90
2022/09/19 14:07:32;;;;;;;;;;;26.50;37.80;;;;;;5087429;28;19924;-90
2022/09/19 14:10:24;;;;;;;;;;;26.30;37.30;;;;;;5088176;28;20350;-88
2022/09/19 14:12:55;;;;;;;;;;;26.20;36.30;;;;;;5072501;28;19959;-93
2022/09/19 14:15:31;;;;;;;;;;;25.90;36.90;;;;;;5087595;28;19912;-88
2022/09/19 14:18:12;;;;;;;;;;;25.70;37.60;;;;;;5088764;28;19925;-90
2022/09/19 14:20:54;;;;;;;;;;;25.50;38.60;;;;;;5089148;28;19990;-89
2022/09/19 14:23:21;;;;;;;;;;;25.30;38.50;;;;;;5089593;28;19928;-86
2022/09/19 14:26:01;;;;;;;;;;;25.20;39.00;;;;;;5088655;28;20589;-92
2022/09/19 14:28:30;;;;;;;;;;;25.10;39.70;;;;;;5089456;28;19920;-91
2022/09/19 14:31:11;;;;;;;;;;;25.10;40.80;;;;;;5086936;28;19957;-90
2022/09/19 14:33:55;;;;;;;;;;;25.20;41.50;;;;;;5090573;28;20646;-86
2022/09/19 14:36:39;;;;;;;;;;;25.40;41.30;;;;;;5092018;28;19951;-86
2022/09/19 14:39:20;;;;;;;;;;;25.50;38.50;;;;;;5088302;28;19965;-89
2022/09/19 14:42:09;;;;;;;;;;;25.00;38.20;;;;;;5068102;28;19912;-92
2022/09/19 14:44:53;;;;;;;;;;;24.50;38.80;;;;;;5053754;28;20552;-91
2022/09/19 14:47:25;;;;;;;;;;;24.40;39.80;;;;;;5086247;28;20069;-88
2022/09/19 14:50:09;;;;;;;;;;;24.30;40.00;;;;;;5089945;28;19912;-89
2022/09/19 14:52:36;;;;;;;;;;;24.30;39.90;;;;;;5087192;28;20026;-87
2022/09/19 14:55:01;;;;;;;;;;;24.30;40.00;;;;;;5088469;28;19961;-89
2022/09/19 14:57:27;;;;;;;;;;;24.20;40.40;;;;;;5088630;28;19920;-92
2022/09/19 14:59:52;;;;;;;;;;;24.20;41.20;;;;;;5091338;28;19959;-87
2022/09/19 15:02:25;;;;;;;;;;;24.20;41.50;;;;;;5089935;28;19920;-92